Main page
METAR-TAF:

METAR-TAF

Airports :

Lynden Pindling International Airport

Nassau, The Bahamas

latitude: 25-03N, longitude: 077-28W, elevation: 3 m

Current weather observation

The report was made 20 minutes ago, at 02:00 UTC
Wind 3 kt from the East
Temperature 21°C
Humidity 69%
Pressure 1017 hPa
Visibility 10 km or more
Scattered clouds at a height of 4000 ft

METAR: MYNN 270200Z 09003KT 9999 SCT040 21/15 A3002

Time: 21:20 (02:20 UTC)

Forecast

The report was made 4 hours and 35 minutes ago, at 21:45 UTC
Forecast valid from 27 at 00 UTC to 27 at 24 UTC
Wind kt from the North
Visibility 10 km or more
Scattered clouds at a height of 4000 ft
Becoming
from 27 at 14 UTC to 27 at 16 UTC
Wind 9 kt from the South

TAF: MYNN 262145Z 2700/2724 00000KT 9999 SCT040 BECMG 2714/2716 18009KT

Weather observations and forecasts of more than 4000 airports (METAR and TAF reports).

The available stations are represented by yellow and red dots on the map.

Hover mouse over dot to see the name of the station.

Then click to see weather observations and forecasts.

To change the map : click on the green buttons with a black cross to zoom in, on the green button with a dash to zoom out, or on the green arrows for adjacent maps.


METAR-TAF: